Time;durP1;ratioP1;P1;durP2;ratioP2;P2;SDS_P1;SDS_P2;PMS_P1;PMS_P2;Temp;Humidity;BMP_temperature;BMP_pressure;BME280_temperature;BME280_humidity;BME280_pressure;Samples;Min_cycle;Max_cycle;Signal;HPM_P1;HPM_P2
2021/03/12 00:00:08;;;;;;;2.25;2.05;;;22.50;27.80;;;;;;5008679;28;20042;-66
2021/03/12 00:02:35;;;;;;;1.70;1.60;;;22.50;27.80;;;;;;5008800;28;20326;-67
2021/03/12 00:05:05;;;;;;;1.88;1.52;;;22.40;27.70;;;;;;4991409;28;20053;-67
2021/03/12 00:07:31;;;;;;;1.92;1.83;;;22.40;27.70;;;;;;5008192;28;20136;-67
2021/03/12 00:09:58;;;;;;;2.20;1.60;;;22.40;27.70;;;;;;5008176;28;20129;-67
2021/03/12 00:12:24;;;;;;;2.20;2.00;;;22.40;27.70;;;;;;5008332;28;20176;-67
2021/03/12 00:14:51;;;;;;;1.65;1.55;;;22.40;27.70;;;;;;5007586;28;20133;-67
2021/03/12 00:17:18;;;;;;;1.95;1.80;;;22.40;27.80;;;;;;5008122;28;20137;-67
2021/03/12 00:19:45;;;;;;;1.58;1.48;;;22.40;27.80;;;;;;5008217;28;20041;-67
2021/03/12 00:22:12;;;;;;;2.05;1.80;;;22.40;27.70;;;;;;5008069;28;20256;-67
2021/03/12 00:24:38;;;;;;;2.20;2.00;;;22.40;27.80;;;;;;5008275;28;20125;-67
2021/03/12 00:27:05;;;;;;;1.50;1.40;;;22.40;27.80;;;;;;4990565;28;20081;-66
2021/03/12 00:29:31;;;;;;;1.80;1.60;;;22.40;27.80;;;;;;5007094;28;20046;-67
2021/03/12 00:31:58;;;;;;;1.95;1.70;;;22.40;27.80;;;;;;5006912;28;20373;-67
2021/03/12 00:34:25;;;;;;;1.50;1.40;;;22.40;27.80;;;;;;5008047;28;20140;-66
2021/03/12 00:36:52;;;;;;;1.58;1.48;;;22.40;27.80;;;;;;5006911;28;20395;-68
2021/03/12 00:39:18;;;;;;;2.15;1.95;;;22.40;27.80;;;;;;5007209;28;20467;-67
2021/03/12 00:42:02;;;;;;;1.75;1.65;;;22.40;27.80;;;;;;5007752;28;20041;-67
2021/03/12 00:44:32;;;;;;;1.88;1.77;;;22.40;27.80;;;;;;5007580;28;20081;-67
2021/03/12 00:46:58;;;;;;;1.50;1.40;;;22.40;27.80;;;;;;5007568;28;20146;-67
2021/03/12 00:49:26;;;;;;;1.83;1.73;;;22.40;27.80;;;;;;5006890;28;20057;-67
2021/03/12 00:51:53;;;;;;;1.42;1.40;;;22.40;28.20;;;;;;5007287;28;20123;-68
2021/03/12 00:54:19;;;;;;;1.60;1.50;;;22.40;27.80;;;;;;5007412;28;20492;-66
2021/03/12 00:56:46;;;;;;;1.90;1.80;;;22.40;27.80;;;;;;5007402;28;20386;-67
2021/03/12 00:59:13;;;;;;;1.85;1.67;;;22.40;27.80;;;;;;5007891;28;20053;-67
2021/03/12 01:01:39;;;;;;;1.98;1.80;;;22.40;27.80;;;;;;5007722;28;20046;-67
2021/03/12 01:04:06;;;;;;;1.92;1.83;;;22.40;27.80;;;;;;4989959;28;20041;-67
2021/03/12 01:06:33;;;;;;;1.88;1.67;;;22.40;27.80;;;;;;5007469;28;20049;-67
2021/03/12 01:09:01;;;;;;;1.42;1.35;;;22.40;27.80;;;;;;5006852;28;20205;-67
2021/03/12 01:11:27;;;;;;;1.75;1.65;;;22.40;27.80;;;;;;5007123;28;20082;-67
2021/03/12 01:13:54;;;;;;;1.48;1.38;;;22.40;27.80;;;;;;5006931;28;20042;-67
2021/03/12 01:16:20;;;;;;;1.63;1.52;;;22.40;27.80;;;;;;5007219;28;20220;-67
2021/03/12 01:18:47;;;;;;;1.77;1.67;;;22.40;27.80;;;;;;5006996;28;20057;-67
2021/03/12 01:21:14;;;;;;;1.40;1.30;;;22.30;27.80;;;;;;5007270;28;20439;-66
2021/03/12 01:23:41;;;;;;;1.83;1.50;;;22.30;27.80;;;;;;5006930;28;20116;-67
2021/03/12 01:26:07;;;;;;;1.70;1.50;;;22.30;27.80;;;;;;5007532;28;20101;-67
2021/03/12 01:28:38;;;;;;;1.50;1.40;;;22.40;27.90;;;;;;5006895;28;20320;-67
2021/03/12 01:31:05;;;;;;;1.33;1.33;;;22.30;27.90;;;;;;5006492;28;20053;-67
2021/03/12 01:33:31;;;;;;;1.80;1.70;;;22.40;27.90;;;;;;5006341;28;20054;-68
2021/03/12 01:35:58;;;;;;;1.50;1.40;;;22.40;27.90;;;;;;5007045;28;20052;-67
2021/03/12 01:38:25;;;;;;;1.95;1.50;;;22.30;27.80;;;;;;5006827;28;20377;-67
2021/03/12 01:40:51;;;;;;;1.38;1.27;;;22.40;27.90;;;;;;5006913;28;20045;-67
2021/03/12 01:43:20;;;;;;;1.35;1.25;;;22.30;27.90;;;;;;5006895;28;20132;-67
2021/03/12 01:45:49;;;;;;;1.42;1.30;;;22.30;27.90;;;;;;5006673;28;20073;-67
2021/03/12 01:48:18;;;;;;;1.48;1.38;;;22.40;27.90;;;;;;5006450;28;20061;-68
2021/03/12 01:50:53;;;;;;;1.40;1.30;;;22.30;27.90;;;;;;5006341;28;20140;-67
2021/03/12 01:53:21;;;;;;;1.67;1.58;;;22.30;27.90;;;;;;5006821;28;20312;-68
2021/03/12 01:55:49;;;;;;;1.50;1.40;;;22.30;27.90;;;;;;5006264;28;20046;-68
2021/03/12 01:58:18;;;;;;;1.63;1.50;;;22.30;27.90;;;;;;5005159;28;20145;-67
2021/03/12 02:00:49;;;;;;;1.58;1.48;;;22.30;27.90;;;;;;5006743;28;20291;-68
2021/03/12 02:03:19;;;;;;;1.30;1.20;;;22.30;27.90;;;;;;5005497;28;20052;-67
2021/03/12 02:05:46;;;;;;;1.40;1.30;;;22.30;27.90;;;;;;5006155;28;20128;-68
2021/03/12 02:08:13;;;;;;;1.45;1.35;;;22.30;27.90;;;;;;5005144;28;20064;-68
2021/03/12 02:10:39;;;;;;;1.70;1.60;;;22.30;27.90;;;;;;5006418;28;20256;-66
2021/03/12 02:13:41;;;;;;;1.60;1.50;;;22.30;27.90;;;;;;5006208;28;20057;-67
2021/03/12 02:16:35;;;;;;;1.38;1.30;;;22.30;27.90;;;;;;5006024;28;20136;-67
2021/03/12 02:19:41;;;;;;;1.38;1.27;;;22.30;27.90;;;;;;5006540;28;20128;-67
2021/03/12 02:22:10;;;;;;;1.73;1.63;;;22.30;27.90;;;;;;5005563;28;20633;-67
2021/03/12 02:24:46;;;;;;;1.30;1.30;;;22.30;27.90;;;;;;5005783;28;20129;-67
2021/03/12 02:27:16;;;;;;;1.42;1.33;;;22.30;27.90;;;;;;5006144;28;20056;-67
2021/03/12 02:29:55;;;;;;;1.60;1.50;;;22.30;27.90;;;;;;5006056;28;20101;-67
2021/03/12 02:32:37;;;;;;;1.73;1.63;;;22.30;27.90;;;;;;5005808;28;20490;-68
2021/03/12 02:35:11;;;;;;;1.75;1.65;;;22.30;27.90;;;;;;5005896;28;20053;-67
2021/03/12 02:37:40;;;;;;;1.55;1.45;;;22.30;28.00;;;;;;5005512;28;20550;-68
2021/03/12 02:40:08;;;;;;;1.50;1.40;;;22.30;27.90;;;;;;5005737;28;20287;-68
2021/03/12 02:42:38;;;;;;;1.50;1.40;;;22.30;27.90;;;;;;5004967;28;20093;-67
2021/03/12 02:45:08;;;;;;;1.20;1.20;;;22.30;28.00;;;;;;5005110;28;20495;-67
2021/03/12 02:47:36;;;;;;;1.15;1.05;;;22.30;28.00;;;;;;5005450;28;20184;-67
2021/03/12 02:50:05;;;;;;;1.30;1.20;;;22.30;28.00;;;;;;5005531;28;20048;-67
2021/03/12 02:52:33;;;;;;;1.17;1.13;;;22.20;27.90;;;;;;5004606;28;20129;-69
2021/03/12 02:55:00;;;;;;;1.50;1.38;;;22.30;28.00;;;;;;5005434;28;20092;-67
2021/03/12 02:57:26;;;;;;;1.45;1.35;;;22.20;27.90;;;;;;5004138;28;20482;-67
2021/03/12 02:59:55;;;;;;;1.52;1.30;;;22.20;27.90;;;;;;5004371;28;20078;-67
2021/03/12 03:02:23;;;;;;;1.42;1.33;;;22.20;28.00;;;;;;5005301;28;20541;-67
2021/03/12 03:04:52;;;;;;;1.25;1.15;;;22.20;28.00;;;;;;5005668;28;20065;-66
2021/03/12 03:07:20;;;;;;;0.98;0.98;;;22.20;28.00;;;;;;5005178;28;20543;-67
2021/03/12 03:09:50;;;;;;;1.50;1.40;;;22.20;28.00;;;;;;5004302;28;20143;-67
2021/03/12 03:12:20;;;;;;;1.88;1.77;;;22.20;28.00;;;;;;5004662;28;20237;-67
2021/03/12 03:14:59;;;;;;;1.52;1.42;;;22.20;28.00;;;;;;5005108;28;20053;-67
2021/03/12 03:17:28;;;;;;;1.60;1.50;;;22.20;28.10;;;;;;5004859;28;20084;-67
2021/03/12 03:19:56;;;;;;;1.30;1.20;;;22.20;28.10;;;;;;5005391;28;20132;-68
2021/03/12 03:22:23;;;;;;;1.63;1.50;;;22.20;28.10;;;;;;5005053;28;20363;-68
2021/03/12 03:24:49;;;;;;;1.25;0.85;;;22.20;28.00;;;;;;5005053;28;20727;-68
2021/03/12 03:27:18;;;;;;;1.83;1.30;;;22.20;28.00;;;;;;5004681;28;20053;-67
2021/03/12 03:29:44;;;;;;;1.45;1.35;;;22.20;28.10;;;;;;5004523;28;20092;-68
2021/03/12 03:32:12;;;;;;;1.38;1.27;;;22.20;28.10;;;;;;5004736;28;20053;-67
2021/03/12 03:34:40;;;;;;;0.90;0.90;;;22.20;28.10;;;;;;5004529;28;20068;-67
2021/03/12 03:37:07;;;;;;;1.10;1.10;;;22.20;28.10;;;;;;5004866;28;20131;-67
2021/03/12 03:39:33;;;;;;;1.30;1.20;;;22.20;28.10;;;;;;5004921;28;20235;-67
2021/03/12 03:42:04;;;;;;;1.40;1.30;;;22.20;28.10;;;;;;5004666;28;20084;-67
2021/03/12 03:44:35;;;;;;;1.02;0.98;;;22.20;28.10;;;;;;5004066;28;20124;-67
2021/03/12 03:47:03;;;;;;;1.05;0.90;;;22.20;28.10;;;;;;5003984;28;20092;-67
2021/03/12 03:49:38;;;;;;;1.05;1.00;;;22.20;28.10;;;;;;5004413;28;20046;-67
2021/03/12 03:52:07;;;;;;;1.25;1.15;;;22.20;28.10;;;;;;5004577;28;20574;-67
2021/03/12 03:54:36;;;;;;;1.38;1.27;;;22.20;28.10;;;;;;5004431;28;20136;-67
2021/03/12 03:57:05;;;;;;;0.93;0.93;;;22.20;28.10;;;;;;4987821;28;20046;-67
2021/03/12 03:59:33;;;;;;;1.30;1.20;;;22.10;28.00;;;;;;5004334;28;20131;-67
2021/03/12 04:02:01;;;;;;;1.30;1.27;;;22.20;28.10;;;;;;5004887;28;20137;-67
2021/03/12 04:04:28;;;;;;;1.60;1.10;;;22.20;28.10;;;;;;5003888;28;20053;-67
2021/03/12 04:06:55;;;;;;;1.13;1.13;;;22.20;28.10;;;;;;5004801;28;20108;-68
2021/03/12 04:09:22;;;;;;;1.23;1.23;;;22.20;28.10;;;;;;5004709;28;20477;-67
2021/03/12 04:11:50;;;;;;;1.20;1.10;;;22.20;28.10;;;;;;5004458;28;20594;-67
2021/03/12 04:14:20;;;;;;;1.23;1.23;;;22.20;28.10;;;;;;5004953;28;20049;-67
2021/03/12 04:16:47;;;;;;;0.98;0.98;;;22.10;28.00;;;;;;5004284;28;20491;-66
2021/03/12 04:19:14;;;;;;;1.15;1.15;;;22.20;28.10;;;;;;5004765;28;20081;-67
2021/03/12 04:21:41;;;;;;;1.02;1.02;;;22.10;28.00;;;;;;5004307;28;20137;-67
2021/03/12 04:24:09;;;;;;;1.23;1.13;;;22.20;28.10;;;;;;5004379;28;20053;-67
2021/03/12 04:26:36;;;;;;;1.77;1.30;;;22.20;28.50;;;;;;5004452;28;20121;-67
2021/03/12 04:29:03;;;;;;;1.27;1.20;;;22.20;28.10;;;;;;5003901;28;20082;-66
2021/03/12 04:31:30;;;;;;;1.15;1.08;;;22.20;28.10;;;;;;5004461;28;20467;-67
2021/03/12 04:33:57;;;;;;;1.00;1.00;;;22.20;28.10;;;;;;5004358;28;20057;-68
2021/03/12 04:36:24;;;;;;;1.20;1.10;;;22.20;28.10;;;;;;5004074;28;20052;-67
2021/03/12 04:38:51;;;;;;;1.27;1.27;;;22.20;28.10;;;;;;5004420;28;20307;-67
2021/03/12 04:41:18;;;;;;;1.00;1.00;;;22.10;28.00;;;;;;5003575;28;20081;-67
2021/03/12 04:43:45;;;;;;;1.10;0.95;;;22.10;28.00;;;;;;5003628;28;20074;-67
2021/03/12 04:46:13;;;;;;;1.10;1.10;;;22.10;28.00;;;;;;5007425;28;20054;-67
2021/03/12 04:48:41;;;;;;;1.23;1.17;;;22.10;28.00;;;;;;5006243;28;20048;-67
2021/03/12 04:51:12;;;;;;;1.30;1.20;;;22.10;28.00;;;;;;5003946;28;20103;-67
2021/03/12 04:53:40;;;;;;;1.08;1.08;;;22.10;28.00;;;;;;5006820;28;20753;-68
2021/03/12 04:56:07;;;;;;;1.35;1.25;;;22.10;28.00;;;;;;5007208;28;20442;-67
2021/03/12 04:58:37;;;;;;;1.02;0.93;;;22.10;28.00;;;;;;5005985;28;20082;-67
2021/03/12 05:01:08;;;;;;;1.23;1.13;;;22.10;28.00;;;;;;5007526;28;20125;-68
2021/03/12 05:03:38;;;;;;;1.15;1.15;;;22.10;28.00;;;;;;5007402;28;20108;-68
2021/03/12 05:06:07;;;;;;;1.25;1.15;;;22.10;28.10;;;;;;5008089;28;20064;-67
2021/03/12 05:08:36;;;;;;;0.93;0.93;;;22.10;28.10;;;;;;5005879;28;20081;-67
2021/03/12 05:11:09;;;;;;;0.88;0.88;;;22.10;28.10;;;;;;5007659;28;20050;-66
2021/03/12 05:13:36;;;;;;;1.33;1.23;;;22.10;28.00;;;;;;5007059;28;20674;-67
2021/03/12 05:16:03;;;;;;;1.02;1.00;;;22.20;28.10;;;;;;5007394;28;20050;-67
2021/03/12 05:18:30;;;;;;;1.02;1.00;;;22.10;28.10;;;;;;5006630;28;20060;-67
2021/03/12 05:20:57;;;;;;;1.08;0.98;;;22.10;28.00;;;;;;5006925;28;20081;-67
2021/03/12 05:23:24;;;;;;;1.25;1.15;;;22.10;28.00;;;;;;5006577;28;20100;-67
2021/03/12 05:25:51;;;;;;;1.10;1.10;;;22.10;28.00;;;;;;5005951;28;20065;-68
2021/03/12 05:28:18;;;;;;;0.82;0.82;;;22.10;28.00;;;;;;5006126;28;20141;-67
2021/03/12 05:30:44;;;;;;;1.20;1.20;;;22.10;28.00;;;;;;5006637;28;20117;-67
2021/03/12 05:33:11;;;;;;;1.23;0.80;;;22.10;28.00;;;;;;5007001;28;20049;-67
2021/03/12 05:35:38;;;;;;;0.88;0.88;;;22.10;28.00;;;;;;5006664;28;20136;-67
2021/03/12 05:38:04;;;;;;;0.90;0.90;;;22.10;28.00;;;;;;5006040;28;20541;-67
2021/03/12 05:40:31;;;;;;;1.17;1.10;;;22.10;28.00;;;;;;5005031;28;20073;-67
2021/03/12 05:42:59;;;;;;;0.85;0.82;;;22.10;28.00;;;;;;5005564;28;20416;-66
2021/03/12 05:45:46;;;;;;;1.00;1.00;;;22.10;28.00;;;;;;5004538;28;20045;-67
2021/03/12 05:48:16;;;;;;;0.80;0.80;;;22.10;28.10;;;;;;5004865;28;20065;-67
2021/03/12 05:50:43;;;;;;;0.80;0.80;;;22.10;28.00;;;;;;5003707;28;20472;-67
2021/03/12 05:53:10;;;;;;;0.77;0.77;;;22.10;28.00;;;;;;5001644;28;20072;-66
2021/03/12 05:55:37;;;;;;;1.15;1.08;;;22.10;28.00;;;;;;5002963;28;20070;-68
2021/03/12 05:58:04;;;;;;;1.00;1.00;;;22.10;28.10;;;;;;5004165;28;20645;-68
2021/03/12 06:00:31;;;;;;;1.70;1.30;;;22.20;28.10;;;;;;5004576;28;20048;-67
2021/03/12 06:02:57;;;;;;;0.80;0.80;;;22.20;28.10;;;;;;5004892;28;20127;-67
2021/03/12 06:05:25;;;;;;;1.42;1.33;;;22.20;28.10;;;;;;5004752;28;20057;-67
2021/03/12 06:07:51;;;;;;;1.30;1.20;;;22.20;28.10;;;;;;5003403;28;20074;-67
2021/03/12 06:10:18;;;;;;;1.40;1.30;;;22.20;28.20;;;;;;5001528;28;20238;-67
2021/03/12 06:12:49;;;;;;;1.63;1.52;;;22.20;28.20;;;;;;5001026;28;20074;-67
2021/03/12 06:15:16;;;;;;;1.88;1.77;;;22.20;28.20;;;;;;5001463;28;20123;-68
2021/03/12 06:17:45;;;;;;;1.60;1.50;;;22.20;28.30;;;;;;4998461;28;20154;-67
2021/03/12 06:20:15;;;;;;;1.50;1.40;;;22.30;28.40;;;;;;4995453;28;20171;-67
2021/03/12 06:22:58;;;;;;;1.77;1.67;;;22.30;28.40;;;;;;5003308;28;20142;-67
2021/03/12 06:25:32;;;;;;;1.70;1.60;;;22.30;28.50;;;;;;5005728;28;20052;-67
2021/03/12 06:28:20;;;;;;;2.35;1.98;;;22.40;28.70;;;;;;5001308;28;20621;-66
2021/03/12 06:30:47;;;;;;;1.45;1.35;;;22.40;28.70;;;;;;5003035;28;20046;-67
2021/03/12 06:33:25;;;;;;;1.80;1.70;;;22.50;28.90;;;;;;5002486;28;20050;-66
2021/03/12 06:35:52;;;;;;;2.95;1.52;;;22.60;28.90;;;;;;5000915;28;20149;-67
2021/03/12 06:38:19;;;;;;;1.83;1.73;;;22.60;28.90;;;;;;5002541;28;20477;-66
2021/03/12 06:40:46;;;;;;;1.85;1.60;;;22.70;29.00;;;;;;4994210;28;20134;-67
2021/03/12 06:43:20;;;;;;;2.15;2.05;;;22.80;29.00;;;;;;4997095;28;20057;-66
2021/03/12 06:45:56;;;;;;;1.95;1.85;;;22.80;29.00;;;;;;5002302;28;20065;-67
2021/03/12 06:48:29;;;;;;;2.30;1.85;;;22.90;29.00;;;;;;5002551;28;20045;-67
2021/03/12 06:51:00;;;;;;;2.13;2.00;;;23.00;29.00;;;;;;4999773;28;20085;-66
2021/03/12 06:53:42;;;;;;;2.50;2.03;;;23.10;29.10;;;;;;5000447;28;20454;-67
2021/03/12 06:56:11;;;;;;;2.85;2.08;;;23.20;29.10;;;;;;4997274;28;20140;-66
2021/03/12 06:58:37;;;;;;;1.90;1.80;;;23.20;29.10;;;;;;4997253;28;20045;-67
2021/03/12 07:01:21;;;;;;;2.63;2.42;;;23.30;29.10;;;;;;5001115;28;20097;-68
2021/03/12 07:04:09;;;;;;;2.17;2.00;;;23.40;29.20;;;;;;5000844;28;20153;-68
2021/03/12 07:06:45;;;;;;;2.70;2.20;;;23.50;29.30;;;;;;5000809;28;20514;-67
2021/03/12 07:09:13;;;;;;;3.72;1.75;;;23.60;29.60;;;;;;4998636;28;20049;-68
2021/03/12 07:11:40;;;;;;;1.83;1.73;;;23.60;29.60;;;;;;5000520;28;20049;-67
2021/03/12 07:14:07;;;;;;;2.10;1.77;;;23.70;29.70;;;;;;5001078;28;20050;-67
2021/03/12 07:16:37;;;;;;;2.35;2.08;;;23.80;29.80;;;;;;4998726;28;20115;-67
2021/03/12 07:19:04;;;;;;;2.42;1.98;;;23.80;30.30;;;;;;5001601;28;20054;-68
2021/03/12 07:21:33;;;;;;;2.30;2.10;;;23.80;29.70;;;;;;4998156;28;20165;-68
2021/03/12 07:24:02;;;;;;;2.60;2.15;;;23.90;29.50;;;;;;5001798;28;20050;-67
2021/03/12 07:26:41;;;;;;;1.75;1.65;;;23.90;29.40;;;;;;5002785;28;20064;-66
2021/03/12 07:29:11;;;;;;;2.33;2.07;;;23.90;29.20;;;;;;4980011;28;20240;-67
2021/03/12 07:31:40;;;;;;;1.95;1.75;;;24.00;29.10;;;;;;5000154;28;20127;-67
2021/03/12 07:34:19;;;;;;;2.10;1.90;;;24.10;29.00;;;;;;5002299;28;20046;-68
2021/03/12 07:36:50;;;;;;;2.88;1.95;;;24.10;28.90;;;;;;4997002;28;20078;-68
2021/03/12 07:39:25;;;;;;;2.80;1.92;;;24.20;28.90;;;;;;5001556;28;20112;-68
2021/03/12 07:41:53;;;;;;;2.53;2.10;;;24.20;28.90;;;;;;4999438;28;20133;-68
2021/03/12 07:44:45;;;;;;;4.25;1.88;;;24.30;29.20;;;;;;4999621;28;20050;-65
2021/03/12 07:47:27;;;;;;;2.33;2.10;;;24.30;29.50;;;;;;5001208;28;20049;-65
2021/03/12 07:49:55;;;;;;;2.38;2.17;;;24.40;29.20;;;;;;5000289;28;20050;-66
2021/03/12 07:52:49;;;;;;;3.50;2.05;;;24.50;29.00;;;;;;4998615;28;20140;-66
2021/03/12 07:55:48;;;;;;;3.45;2.03;;;24.50;28.70;;;;;;4999238;28;20046;-65
2021/03/12 07:58:50;;;;;;;6.35;2.83;;;24.50;28.60;;;;;;5000158;28;20479;-66
2021/03/12 08:01:19;;;;;;;5.10;2.28;;;24.60;28.50;;;;;;4998261;28;20833;-65
2021/03/12 08:03:47;;;;;;;3.97;2.20;;;24.60;28.40;;;;;;4999004;28;20088;-67
2021/03/12 08:06:28;;;;;;;3.63;2.00;;;24.70;28.40;;;;;;4998265;28;20045;-67
2021/03/12 08:08:55;;;;;;;3.38;2.15;;;24.70;28.30;;;;;;5000974;28;20129;-66
2021/03/12 08:11:35;;;;;;;3.95;2.53;;;24.70;28.20;;;;;;5001790;28;20049;-67
2021/03/12 08:14:18;;;;;;;3.15;2.10;;;24.80;28.20;;;;;;4998455;28;20053;-67
2021/03/12 08:17:16;;;;;;;2.92;2.10;;;24.80;28.10;;;;;;5002070;28;20049;-67
2021/03/12 08:19:46;;;;;;;2.50;2.17;;;24.80;28.10;;;;;;4997717;28;20050;-67
2021/03/12 08:22:33;;;;;;;;;;;24.90;28.20;;;;;;5000416;28;20070;-67
2021/03/12 08:24:59;;;;;;;1.98;1.77;;;24.90;28.20;;;;;;4997037;28;19976;-70
2021/03/12 08:27:47;;;;;;;5.03;2.30;;;24.90;28.10;;;;;;5004380;28;20046;-67
2021/03/12 08:30:44;;;;;;;3.65;2.33;;;24.90;28.10;;;;;;5005541;28;20046;-68
2021/03/12 08:33:31;;;;;;;5.97;2.25;;;24.90;28.10;;;;;;4994760;28;20521;-67
2021/03/12 08:35:59;;;;;;;2.05;1.88;;;24.90;28.10;;;;;;5005680;28;20240;-68
2021/03/12 08:38:37;;;;;;;6.47;2.33;;;24.90;28.10;;;;;;4992108;28;20133;-67
2021/03/12 08:41:14;;;;;;;3.17;2.25;;;25.00;28.10;;;;;;5004637;28;20510;-68
2021/03/12 08:43:53;;;;;;;2.78;2.20;;;25.00;28.10;;;;;;5002950;28;20058;-67
2021/03/12 08:46:28;;;;;;;3.35;2.17;;;25.00;28.10;;;;;;5002734;28;20050;-67
2021/03/12 08:49:06;;;;;;;2.33;2.13;;;25.00;28.10;;;;;;5003906;28;20499;-67
2021/03/12 08:51:33;;;;;;;2.95;2.65;;;25.00;28.20;;;;;;5001908;28;20088;-68
2021/03/12 08:54:01;;;;;;;2.30;2.10;;;25.00;28.20;;;;;;5007467;28;20046;-68
2021/03/12 08:56:32;;;;;;;3.17;2.08;;;25.00;28.20;;;;;;5006174;28;20056;-68
2021/03/12 08:59:01;;;;;;;3.33;2.33;;;25.00;28.20;;;;;;5005117;28;20050;-67
2021/03/12 09:01:30;;;;;;;2.53;2.00;;;25.00;28.20;;;;;;5005877;28;20073;-67
2021/03/12 09:03:59;;;;;;;2.25;2.05;;;25.00;28.20;;;;;;5004634;28;20502;-70
2021/03/12 09:06:36;;;;;;;2.35;2.17;;;25.00;28.20;;;;;;5003188;28;20147;-68
2021/03/12 09:09:08;;;;;;;1.98;1.85;;;25.10;28.50;;;;;;5005846;28;20483;-69
2021/03/12 09:11:36;;;;;;;2.47;2.28;;;25.00;28.50;;;;;;5004781;28;20132;-69
2021/03/12 09:14:05;;;;;;;3.15;2.08;;;25.10;28.60;;;;;;5002865;28;20065;-70
2021/03/12 09:16:37;;;;;;;2.08;1.90;;;25.10;28.70;;;;;;5011451;28;20351;-71
2021/03/12 09:19:12;;;;;;;4.45;2.38;;;25.10;29.00;;;;;;5016184;28;20045;-71
2021/03/12 09:21:39;;;;;;;2.50;2.22;;;25.20;29.20;;;;;;5016015;28;20052;-70
2021/03/12 09:24:06;;;;;;;3.92;2.20;;;25.20;29.20;;;;;;5009555;28;20052;-73
2021/03/12 09:26:35;;;;;;;2.80;2.05;;;25.20;29.30;;;;;;5006890;28;20137;-70
2021/03/12 09:29:08;;;;;;;1.90;1.77;;;25.20;29.30;;;;;;5003593;28;20451;-69
2021/03/12 09:31:37;;;;;;;2.30;2.10;;;25.20;29.30;;;;;;5003780;28;20457;-68
2021/03/12 09:34:12;;;;;;;3.50;2.38;;;25.20;29.30;;;;;;5007581;28;20459;-68
2021/03/12 09:36:42;;;;;;;2.33;2.05;;;25.20;29.30;;;;;;5001270;28;20085;-67
2021/03/12 09:39:20;;;;;;;4.60;1.92;;;25.30;29.40;;;;;;5002445;28;20046;-69
2021/03/12 09:42:04;;;;;;;4.75;2.30;;;25.30;29.20;;;;;;5004344;28;20038;-68
2021/03/12 09:44:31;;;;;;;2.20;2.00;;;25.30;29.40;;;;;;5004718;28;20042;-69
2021/03/12 09:47:03;;;;;;;4.63;2.50;;;25.30;29.40;;;;;;5003340;28;20054;-69
2021/03/12 09:49:42;;;;;;;2.45;2.25;;;25.40;29.40;;;;;;5003657;28;20073;-68
2021/03/12 09:52:15;;;;;;;2.47;2.28;;;25.40;29.30;;;;;;5003288;28;20081;-71
2021/03/12 09:54:44;;;;;;;2.30;2.00;;;25.40;29.20;;;;;;5005770;28;20049;-69
2021/03/12 09:57:16;;;;;;;2.67;2.25;;;25.50;29.30;;;;;;5008391;28;20451;-70
2021/03/12 09:59:47;;;;;;;2.97;2.28;;;25.50;29.30;;;;;;5005722;28;20046;-70
2021/03/12 10:02:28;;;;;;;2.17;1.98;;;25.50;29.30;;;;;;5005415;28;20061;-71
2021/03/12 10:04:58;;;;;;;5.28;2.25;;;25.60;29.30;;;;;;5001469;28;20576;-70
2021/03/12 10:07:44;;;;;;;4.60;2.92;;;25.60;29.70;;;;;;5002678;28;20050;-68
2021/03/12 10:10:16;;;;;;;2.47;2.25;;;25.60;29.30;;;;;;5005445;28;20081;-70
2021/03/12 10:12:44;;;;;;;2.03;1.70;;;25.70;29.30;;;;;;5001068;28;20042;-70
2021/03/12 10:15:36;;;;;;;2.92;2.10;;;25.70;29.30;;;;;;5002335;28;20045;-70
2021/03/12 10:18:04;;;;;;;2.50;2.10;;;25.70;29.30;;;;;;5001794;28;20395;-69
2021/03/12 10:20:34;;;;;;;2.90;2.08;;;25.70;29.30;;;;;;5000795;28;20192;-68
2021/03/12 10:23:07;;;;;;;2.03;1.80;;;25.70;29.40;;;;;;5003377;28;20494;-69
2021/03/12 10:25:44;;;;;;;3.03;1.80;;;25.70;29.30;;;;;;5000538;28;20061;-72
2021/03/12 10:28:19;;;;;;;3.00;2.03;;;25.70;29.70;;;;;;5002356;28;20073;-70
2021/03/12 10:30:49;;;;;;;3.05;1.90;;;25.70;29.30;;;;;;5002963;28;20038;-66
2021/03/12 10:33:21;;;;;;;3.10;2.23;;;25.70;29.20;;;;;;5004157;28;20458;-69
2021/03/12 10:35:54;;;;;;;3.65;2.03;;;25.70;28.90;;;;;;4999883;28;20109;-70
2021/03/12 10:38:26;;;;;;;4.78;2.03;;;25.70;29.00;;;;;;5004415;28;20519;-69
2021/03/12 10:41:05;;;;;;;2.60;2.08;;;25.60;28.90;;;;;;4985382;28;20418;-67
2021/03/12 10:43:34;;;;;;;2.28;2.10;;;25.70;29.10;;;;;;5004171;28;20046;-68
2021/03/12 10:46:04;;;;;;;4.88;2.08;;;25.60;29.10;;;;;;4985309;28;20511;-68
2021/03/12 10:48:40;;;;;;;4.07;2.30;;;25.60;29.10;;;;;;5001279;28;20049;-69
2021/03/12 10:51:08;;;;;;;5.25;2.05;;;25.60;29.20;;;;;;5005355;28;20064;-68
2021/03/12 10:53:54;;;;;;;5.03;2.72;;;25.60;29.20;;;;;;5002826;28;20054;-68
2021/03/12 10:56:25;;;;;;;2.45;2.03;;;25.60;29.20;;;;;;5003296;28;20053;-69
2021/03/12 10:58:53;;;;;;;2.65;2.13;;;25.60;29.20;;;;;;5003595;28;20049;-68
2021/03/12 11:01:28;;;;;;;2.60;2.20;;;25.60;29.20;;;;;;5004051;28;20584;-68
2021/03/12 11:03:58;;;;;;;2.78;2.30;;;25.50;29.20;;;;;;5001151;28;20058;-68
2021/03/12 11:06:37;;;;;;;5.93;2.40;;;25.60;29.30;;;;;;5003118;28;20042;-67
2021/03/12 11:09:13;;;;;;;2.63;2.30;;;25.60;29.30;;;;;;5004257;28;20057;-68
2021/03/12 11:11:43;;;;;;;4.22;2.40;;;25.60;29.20;;;;;;5002932;28;20405;-65
2021/03/12 11:14:10;;;;;;;;;;;25.50;29.00;;;;;;5004787;28;20045;-65
2021/03/12 11:16:37;;;;;;;8.35;4.45;;;25.60;28.90;;;;;;5002659;28;19968;-65
2021/03/12 11:19:05;;;;;;;6.20;3.30;;;25.50;28.70;;;;;;5002878;28;20164;-66
2021/03/12 11:21:32;;;;;;;4.85;2.85;;;25.50;28.70;;;;;;5003067;28;20475;-66
2021/03/12 11:23:59;;;;;;;3.50;3.15;;;25.50;28.70;;;;;;5003130;28;20143;-66
2021/03/12 11:26:26;;;;;;;4.10;2.85;;;25.50;28.70;;;;;;5000889;28;20046;-67
2021/03/12 11:28:54;;;;;;;4.00;3.00;;;25.50;28.60;;;;;;5002075;28;20410;-68
2021/03/12 11:31:20;;;;;;;3.53;2.53;;;25.50;28.70;;;;;;5003281;28;20049;-69
2021/03/12 11:33:47;;;;;;;5.72;3.05;;;25.50;28.80;;;;;;5003998;28;20046;-69
2021/03/12 11:36:14;;;;;;;3.67;2.75;;;25.60;28.90;;;;;;5003015;28;20084;-68
2021/03/12 11:38:41;;;;;;;3.80;2.50;;;25.60;28.90;;;;;;5005785;28;20100;-69
2021/03/12 11:41:08;;;;;;;3.08;2.58;;;25.60;28.90;;;;;;5003715;28;20046;-68
2021/03/12 11:43:35;;;;;;;5.10;2.88;;;25.60;29.00;;;;;;5003220;28;20050;-69
2021/03/12 11:46:02;;;;;;;4.10;2.75;;;25.70;29.00;;;;;;5005179;28;20053;-68
2021/03/12 11:48:29;;;;;;;3.10;2.38;;;25.70;29.00;;;;;;4998303;28;20128;-68
2021/03/12 11:50:57;;;;;;;4.78;3.00;;;25.70;29.10;;;;;;4998849;28;20049;-68
2021/03/12 11:53:24;;;;;;;4.05;2.20;;;25.80;29.20;;;;;;5002887;28;20105;-71
2021/03/12 11:55:51;;;;;;;5.13;2.22;;;25.80;29.20;;;;;;5004045;28;20141;-69
2021/03/12 11:58:17;;;;;;;2.80;2.40;;;25.90;29.30;;;;;;5007926;28;20803;-70
2021/03/12 12:00:44;;;;;;;2.65;2.40;;;25.90;29.20;;;;;;5004484;28;20081;-69
2021/03/12 12:03:11;;;;;;;4.10;2.58;;;25.90;29.10;;;;;;5000119;28;20407;-70
2021/03/12 12:05:38;;;;;;;3.17;2.50;;;25.90;29.10;;;;;;5003652;28;20502;-69
2021/03/12 12:08:05;;;;;;;3.50;2.78;;;26.00;29.20;;;;;;5007336;28;20140;-69
2021/03/12 12:10:32;;;;;;;6.50;2.63;;;25.90;29.10;;;;;;5006689;28;20042;-69
2021/03/12 12:12:59;;;;;;;2.60;2.40;;;25.90;29.00;;;;;;5006058;28;20056;-69
2021/03/12 12:15:27;;;;;;;5.72;2.47;;;25.90;29.00;;;;;;5004736;28;20077;-68
2021/03/12 12:18:03;;;;;;;3.20;2.35;;;25.90;29.00;;;;;;5001702;28;20042;-68
2021/03/12 12:20:36;;;;;;;3.30;2.45;;;25.90;28.90;;;;;;5001140;28;20497;-69
2021/03/12 12:23:03;;;;;;;2.67;2.42;;;25.80;28.80;;;;;;5003159;28;20046;-70
2021/03/12 12:25:30;;;;;;;4.25;2.70;;;25.80;28.80;;;;;;5003902;28;20033;-68
2021/03/12 12:27:57;;;;;;;3.60;2.65;;;25.80;28.80;;;;;;5002812;28;20140;-70
2021/03/12 12:30:23;;;;;;;2.20;1.90;;;25.80;28.80;;;;;;4998227;28;20084;-71
2021/03/12 12:32:50;;;;;;;3.40;2.53;;;25.80;28.70;;;;;;5000716;28;20787;-71
2021/03/12 12:35:17;;;;;;;4.25;2.35;;;25.80;28.70;;;;;;5006634;28;20486;-72
2021/03/12 12:37:49;;;;;;;3.60;2.08;;;25.80;28.70;;;;;;5005063;28;20578;-71
2021/03/12 12:40:19;;;;;;;5.18;2.30;;;25.80;28.80;;;;;;5000561;28;20050;-71
2021/03/12 12:42:47;;;;;;;2.70;2.20;;;25.70;28.70;;;;;;4992057;28;20073;-71
2021/03/12 12:45:14;;;;;;;3.90;2.42;;;25.70;28.80;;;;;;5002720;28;20165;-70
2021/03/12 12:47:42;;;;;;;3.97;2.28;;;25.70;28.80;;;;;;4996422;28;20045;-70
2021/03/12 12:50:10;;;;;;;2.72;2.42;;;25.70;29.20;;;;;;5002221;28;20056;-69
2021/03/12 12:52:39;;;;;;;2.65;2.35;;;25.70;29.50;;;;;;5004795;28;20140;-70
2021/03/12 12:55:08;;;;;;;3.13;2.00;;;25.60;29.50;;;;;;5004111;28;20125;-68
2021/03/12 12:57:36;;;;;;;2.38;2.15;;;25.70;29.60;;;;;;5004936;28;20092;-69
2021/03/12 13:00:06;;;;;;;2.58;2.15;;;25.60;29.70;;;;;;5004358;28;20124;-68
2021/03/12 13:02:35;;;;;;;3.95;2.67;;;25.60;29.70;;;;;;4973838;28;803068;-70
2021/03/12 13:05:04;;;;;;;2.83;2.43;;;25.60;29.90;;;;;;5006065;28;20057;-71